Time;durP1;ratioP1;P1;durP2;ratioP2;P2;SDS_P1;SDS_P2;PMS_P1;PMS_P2;Temp;Humidity;BMP_temperature;BMP_pressure;BME280_temperature;BME280_humidity;BME280_pressure;Samples;Min_cycle;Max_cycle;Signal;HPM_P1;HPM_P2
2023/09/14 00:00:15;;;;;;;4.57;4.27;;;19.10;99.90;;;;;;5012284;28;20309;-67
2023/09/14 00:02:41;;;;;;;5.20;4.70;;;19.10;99.90;;;;;;5012633;28;20614;-66
2023/09/14 00:05:07;;;;;;;4.77;4.37;;;19.20;99.90;;;;;;5010530;28;20185;-66
2023/09/14 00:07:33;;;;;;;4.93;4.43;;;19.20;99.90;;;;;;5012847;28;20229;-66
2023/09/14 00:09:59;;;;;;;4.20;3.90;;;19.20;99.90;;;;;;5012922;28;20422;-67
2023/09/14 00:12:25;;;;;;;5.53;4.30;;;19.20;99.90;;;;;;5010941;28;20453;-66
2023/09/14 00:14:50;;;;;;;5.13;4.73;;;19.20;99.90;;;;;;5012263;28;20428;-66
2023/09/14 00:17:16;;;;;;;5.30;4.80;;;19.20;99.90;;;;;;5012456;28;20171;-67
2023/09/14 00:19:42;;;;;;;6.77;5.23;;;19.20;99.90;;;;;;5012695;28;20622;-66
2023/09/14 00:22:08;;;;;;;7.13;6.07;;;19.20;99.90;;;;;;5012266;28;20202;-65
2023/09/14 00:24:35;;;;;;;9.57;5.93;;;19.10;99.90;;;;;;5013124;28;20525;-67
2023/09/14 00:27:01;;;;;;;7.40;6.07;;;19.10;99.90;;;;;;5011320;28;20422;-66
2023/09/14 00:29:26;;;;;;;6.63;5.27;;;19.10;99.90;;;;;;5011843;28;20418;-67
2023/09/14 00:31:52;;;;;;;6.10;5.20;;;19.10;99.90;;;;;;5012866;28;20297;-67
2023/09/14 00:34:18;;;;;;;6.23;5.00;;;19.10;99.90;;;;;;5007752;28;20296;-68
2023/09/14 00:36:43;;;;;;;8.60;5.40;;;19.00;99.90;;;;;;5008177;28;20309;-66
2023/09/14 00:39:10;;;;;;;5.73;5.23;;;19.00;99.90;;;;;;5005668;28;20222;-66
2023/09/14 00:41:36;;;;;;;6.53;5.87;;;19.00;99.90;;;;;;5012626;28;20257;-68
2023/09/14 00:44:02;;;;;;;5.97;5.37;;;19.00;99.90;;;;;;5012500;28;20456;-68
2023/09/14 00:46:29;;;;;;;5.70;5.10;;;18.90;99.90;;;;;;5010914;28;20981;-68
2023/09/14 00:48:56;;;;;;;6.70;5.53;;;18.90;99.90;;;;;;5012554;28;20175;-66
2023/09/14 00:51:22;;;;;;;5.80;4.97;;;18.80;99.90;;;;;;5011793;28;20909;-66
2023/09/14 00:53:50;;;;;;;5.73;4.63;;;18.80;99.90;;;;;;5012488;28;20485;-66
2023/09/14 00:56:17;;;;;;;4.77;4.40;;;18.70;99.90;;;;;;5011826;28;20418;-66
2023/09/14 00:58:43;;;;;;;5.00;4.57;;;18.70;99.90;;;;;;5012625;28;20410;-67
2023/09/14 01:01:10;;;;;;;5.37;4.33;;;18.70;99.90;;;;;;5015643;28;20414;-66
2023/09/14 01:03:36;;;;;;;6.43;5.43;;;18.70;99.90;;;;;;5014827;28;20179;-66
2023/09/14 01:06:02;;;;;;;5.40;4.90;;;18.70;99.90;;;;;;5013056;28;20512;-65
2023/09/14 01:08:28;;;;;;;5.77;5.23;;;18.60;99.90;;;;;;5009592;28;20449;-67
2023/09/14 01:10:54;;;;;;;5.63;5.17;;;18.60;99.90;;;;;;5016332;28;20417;-74
2023/09/14 01:13:29;;;;;;;5.03;4.70;;;18.50;99.90;;;;;;5015602;28;20203;-66
2023/09/14 01:16:10;;;;;;;5.17;4.67;;;18.50;99.90;;;;;;5016286;28;20413;-66
2023/09/14 01:19:07;;;;;;;4.87;4.37;;;18.50;99.90;;;;;;5016192;28;20463;-66
2023/09/14 01:21:53;;;;;;;4.70;4.40;;;18.40;99.90;;;;;;5015527;28;20394;-66
2023/09/14 01:24:46;;;;;;;4.70;4.30;;;18.40;99.90;;;;;;5011314;28;20449;-66
2023/09/14 01:27:13;;;;;;;5.20;4.90;;;18.40;99.90;;;;;;5015281;28;20409;-66
2023/09/14 01:29:40;;;;;;;4.77;4.03;;;18.30;99.90;;;;;;5015849;28;20460;-66
2023/09/14 01:32:06;;;;;;;5.13;4.67;;;18.30;99.90;;;;;;5015510;28;20497;-66
2023/09/14 01:34:32;;;;;;;5.90;4.97;;;18.30;99.90;;;;;;5013878;28;20533;-66
2023/09/14 01:36:59;;;;;;;5.10;4.80;;;18.30;99.90;;;;;;5015863;28;20844;-66
2023/09/14 01:39:27;;;;;;;6.33;5.83;;;18.30;99.90;;;;;;5014326;28;20496;-65
2023/09/14 01:41:57;;;;;;;5.53;5.03;;;18.20;99.90;;;;;;5014082;28;20421;-66
2023/09/14 01:44:27;;;;;;;5.80;5.40;;;18.20;99.90;;;;;;5030207;28;20426;-66
2023/09/14 01:46:53;;;;;;;6.73;6.07;;;18.20;99.90;;;;;;5015345;28;20503;-66
2023/09/14 01:49:19;;;;;;;5.87;5.37;;;18.20;99.90;;;;;;5014660;28;21028;-66
2023/09/14 01:51:45;;;;;;;6.40;5.90;;;18.20;99.90;;;;;;5014983;28;20497;-66
2023/09/14 01:54:11;;;;;;;5.93;4.73;;;18.20;99.90;;;;;;5015036;28;20195;-62
2023/09/14 01:56:36;;;;;;;6.70;5.30;;;18.20;99.90;;;;;;5014618;28;20425;-66
2023/09/14 01:59:02;;;;;;;5.40;5.10;;;18.20;99.90;;;;;;5015079;28;20764;-66
2023/09/14 02:01:28;;;;;;;5.90;5.50;;;18.20;99.90;;;;;;5014330;28;20658;-66
2023/09/14 02:03:54;;;;;;;5.87;5.40;;;18.20;99.90;;;;;;5013861;28;20430;-66
2023/09/14 02:06:20;;;;;;;5.53;5.13;;;18.10;99.90;;;;;;5014496;28;20175;-66
2023/09/14 02:08:46;;;;;;;5.33;4.90;;;18.10;99.90;;;;;;5015340;28;20453;-66
2023/09/14 02:11:13;;;;;;;5.33;5.00;;;18.10;99.90;;;;;;5014112;28;20450;-61
2023/09/14 02:13:40;;;;;;;5.20;4.70;;;18.20;99.90;;;;;;5015252;28;20450;-66
2023/09/14 02:16:05;;;;;;;5.70;5.30;;;17.90;99.90;;;;;;5014843;28;20421;-66
2023/09/14 02:18:32;;;;;;;5.47;5.00;;;18.00;99.90;;;;;;5014271;28;20422;-66
2023/09/14 02:20:57;;;;;;;4.67;4.27;;;18.00;99.90;;;;;;5014759;28;20698;-66
2023/09/14 02:23:23;;;;;;;4.87;4.47;;;18.00;99.90;;;;;;5014244;28;20430;-66
2023/09/14 02:25:52;;;;;;;4.60;4.40;;;18.00;99.90;;;;;;5014778;28;20245;-66
2023/09/14 02:28:20;;;;;;;4.50;4.10;;;17.90;99.90;;;;;;5013882;28;20631;-65
2023/09/14 02:30:47;;;;;;;4.30;4.00;;;17.90;99.90;;;;;;5014462;28;20801;-66
2023/09/14 02:33:13;;;;;;;5.50;5.20;;;17.90;99.90;;;;;;5006806;28;20454;-67
2023/09/14 02:35:39;;;;;;;5.40;5.10;;;17.80;99.90;;;;;;5005649;28;20520;-68
2023/09/14 02:38:06;;;;;;;5.90;5.50;;;17.80;99.90;;;;;;5014195;28;20541;-68
2023/09/14 02:40:32;;;;;;;5.00;4.50;;;17.80;99.90;;;;;;5013670;28;20475;-67
2023/09/14 02:42:58;;;;;;;4.80;4.40;;;17.70;99.90;;;;;;5013337;28;20437;-66
2023/09/14 02:45:24;;;;;;;7.33;6.63;;;17.70;99.90;;;;;;5013749;28;20434;-66
2023/09/14 02:47:50;;;;;;;5.27;4.77;;;17.70;99.90;;;;;;5014099;28;20431;-66
2023/09/14 02:50:16;;;;;;;5.13;4.73;;;17.60;99.90;;;;;;5013491;28;20175;-65
2023/09/14 02:52:41;;;;;;;4.90;4.50;;;17.60;99.90;;;;;;5014508;28;20456;-66
2023/09/14 02:55:08;;;;;;;5.50;5.20;;;17.60;99.90;;;;;;5014065;28;20191;-66
2023/09/14 02:57:33;;;;;;;6.20;5.80;;;17.50;99.90;;;;;;5013422;28;20220;-66
2023/09/14 02:59:59;;;;;;;5.63;5.23;;;17.50;99.90;;;;;;5014300;28;20893;-66
2023/09/14 03:02:26;;;;;;;6.00;5.60;;;17.50;99.90;;;;;;5012628;28;20219;-66
2023/09/14 03:04:51;;;;;;;5.20;4.83;;;17.50;99.90;;;;;;5013520;28;20264;-66
2023/09/14 03:07:17;;;;;;;5.70;5.13;;;17.50;99.90;;;;;;5013528;28;20482;-65
2023/09/14 03:09:43;;;;;;;5.73;4.37;;;17.50;99.90;;;;;;5014186;28;20679;-66
2023/09/14 03:12:09;;;;;;;4.93;4.60;;;17.50;99.90;;;;;;5013557;28;20177;-66
2023/09/14 03:14:35;;;;;;;5.33;4.93;;;17.60;99.90;;;;;;5013130;28;20284;-66
2023/09/14 03:17:01;;;;;;;5.93;5.33;;;17.60;99.90;;;;;;5012028;28;20445;-65
2023/09/14 03:19:27;;;;;;;6.40;5.90;;;17.70;99.90;;;;;;5013418;28;20630;-66
2023/09/14 03:21:52;;;;;;;5.53;5.13;;;17.70;99.90;;;;;;5012742;28;20506;-66
2023/09/14 03:24:18;;;;;;;6.60;6.10;;;17.70;99.90;;;;;;5013129;28;22001;-66
2023/09/14 03:26:45;;;;;;;5.40;5.00;;;17.70;99.90;;;;;;5014035;28;20190;-65
2023/09/14 03:29:12;;;;;;;6.10;5.60;;;17.70;99.90;;;;;;5007439;28;20426;-66
2023/09/14 03:31:37;;;;;;;5.27;5.07;;;17.80;99.90;;;;;;5012897;28;20435;-66
2023/09/14 03:34:07;;;;;;;5.80;5.40;;;17.70;99.90;;;;;;5012780;28;20469;-66
2023/09/14 03:36:33;;;;;;;5.93;5.43;;;17.70;99.90;;;;;;5012464;28;20538;-66
2023/09/14 03:38:58;;;;;;;4.60;4.40;;;17.80;99.90;;;;;;5013416;28;21003;-66
2023/09/14 03:41:24;;;;;;;5.60;5.10;;;17.80;99.90;;;;;;5012774;28;20430;-65
2023/09/14 03:43:50;;;;;;;6.97;6.47;;;17.80;99.90;;;;;;5013197;28;20250;-66
2023/09/14 03:46:16;;;;;;;5.77;5.27;;;17.80;99.90;;;;;;5013290;28;20175;-64
2023/09/14 03:48:41;;;;;;;6.03;5.30;;;17.80;99.90;;;;;;5012926;28;20179;-66
2023/09/14 03:51:08;;;;;;;5.00;4.60;;;17.80;99.90;;;;;;5013395;28;20171;-66
2023/09/14 03:53:33;;;;;;;4.60;4.30;;;17.80;99.90;;;;;;5011225;28;20199;-66
2023/09/14 03:56:00;;;;;;;4.70;4.30;;;17.80;99.90;;;;;;5013375;28;20558;-65
2023/09/14 03:58:26;;;;;;;8.43;5.30;;;17.80;99.90;;;;;;5012414;28;20224;-65
2023/09/14 04:00:53;;;;;;;4.93;4.23;;;17.80;99.90;;;;;;5012937;28;20452;-65
2023/09/14 04:03:19;;;;;;;6.57;4.60;;;17.80;99.90;;;;;;5010051;28;20437;-64
2023/09/14 04:05:45;;;;;;;4.97;4.20;;;17.80;99.90;;;;;;5013013;28;20413;-67
2023/09/14 04:08:12;;;;;;;5.77;5.37;;;17.80;99.90;;;;;;5013168;28;20650;-66
2023/09/14 04:10:39;;;;;;;5.00;4.67;;;17.80;99.90;;;;;;5010698;28;20421;-66
2023/09/14 04:13:34;;;;;;;5.70;4.60;;;17.80;99.90;;;;;;5013147;28;20461;-66
2023/09/14 04:16:03;;;;;;;4.97;4.57;;;17.70;99.90;;;;;;5007889;28;20457;-65
2023/09/14 04:18:38;;;;;;;7.17;5.20;;;17.80;99.90;;;;;;5011082;28;20440;-67
2023/09/14 04:21:04;;;;;;;4.90;4.60;;;17.70;99.90;;;;;;5012885;28;20404;-66
2023/09/14 04:23:30;;;;;;;5.13;4.70;;;17.60;99.90;;;;;;5011913;28;20873;-66
2023/09/14 04:25:56;;;;;;;4.90;4.50;;;17.70;99.90;;;;;;5012563;28;20422;-66
2023/09/14 04:28:22;;;;;;;5.40;5.00;;;17.70;99.90;;;;;;5012146;28;20550;-65
2023/09/14 04:30:58;;;;;;;5.23;4.83;;;17.70;99.90;;;;;;5012508;28;20183;-66
2023/09/14 04:33:24;;;;;;;5.53;5.07;;;17.70;99.90;;;;;;5010445;28;20461;-66
2023/09/14 04:35:56;;;;;;;5.43;5.03;;;17.70;99.90;;;;;;5012648;28;20423;-67
2023/09/14 04:38:22;;;;;;;5.97;4.00;;;17.70;99.90;;;;;;5011596;28;20531;-66
2023/09/14 04:40:48;;;;;;;4.47;4.07;;;17.70;99.90;;;;;;5012371;28;20429;-67
2023/09/14 04:43:15;;;;;;;5.00;4.30;;;17.70;99.90;;;;;;5012549;28;20635;-67
2023/09/14 04:45:40;;;;;;;4.63;4.13;;;17.80;99.90;;;;;;5011962;28;20274;-67
2023/09/14 04:48:06;;;;;;;6.20;4.00;;;17.80;99.90;;;;;;5011556;28;20497;-66
2023/09/14 04:50:33;;;;;;;7.60;5.37;;;17.80;99.90;;;;;;5010319;28;20406;-66
2023/09/14 04:52:59;;;;;;;4.87;4.47;;;17.90;99.90;;;;;;5011359;28;20463;-67
2023/09/14 04:55:25;;;;;;;6.53;4.83;;;17.90;99.90;;;;;;5011842;28;20433;-64
2023/09/14 04:57:51;;;;;;;5.00;4.60;;;17.90;99.90;;;;;;5012396;28;20175;-66
2023/09/14 05:00:17;;;;;;;5.40;5.00;;;17.90;99.90;;;;;;5012637;28;20425;-66
2023/09/14 05:02:43;;;;;;;5.97;5.10;;;17.90;99.90;;;;;;5003497;28;20434;-65
2023/09/14 05:05:09;;;;;;;5.93;5.33;;;17.90;99.90;;;;;;4993063;28;20515;-66
2023/09/14 05:07:35;;;;;;;5.63;3.70;;;17.90;99.90;;;;;;5008458;28;20524;-66
2023/09/14 05:10:02;;;;;;;4.50;4.10;;;17.90;99.90;;;;;;5012167;28;20433;-65
2023/09/14 05:12:28;;;;;;;6.77;6.17;;;17.90;99.90;;;;;;5011864;28;20177;-65
2023/09/14 05:14:54;;;;;;;6.17;5.07;;;18.00;99.90;;;;;;5012387;28;20496;-66
2023/09/14 05:17:19;;;;;;;6.60;5.00;;;18.00;99.90;;;;;;5012242;28;20189;-66
2023/09/14 05:19:45;;;;;;;8.40;7.30;;;18.00;99.90;;;;;;5011687;28;20418;-65
2023/09/14 05:22:11;;;;;;;7.67;6.90;;;18.00;99.90;;;;;;5012146;28;20720;-66
2023/09/14 05:24:41;;;;;;;8.13;7.40;;;18.00;99.90;;;;;;5011497;28;20258;-66
2023/09/14 05:27:06;;;;;;;7.50;6.70;;;17.90;99.90;;;;;;5012300;28;20461;-66
2023/09/14 05:29:32;;;;;;;7.00;6.27;;;17.90;99.90;;;;;;5010131;28;20458;-66
2023/09/14 05:31:58;;;;;;;7.07;6.47;;;17.90;99.90;;;;;;5010282;28;20171;-63
2023/09/14 05:34:24;;;;;;;8.43;6.93;;;17.90;99.90;;;;;;5010647;28;20458;-62
2023/09/14 05:36:50;;;;;;;10.47;8.23;;;17.90;99.90;;;;;;5011723;28;20183;-64
2023/09/14 05:39:16;;;;;;;10.87;7.57;;;17.90;99.90;;;;;;5010317;28;20575;-65
2023/09/14 05:41:43;;;;;;;8.97;8.27;;;17.70;99.90;;;;;;5011077;28;20521;-65
2023/09/14 05:44:13;;;;;;;8.57;6.70;;;17.80;99.90;;;;;;5011925;28;20422;-65
2023/09/14 05:46:39;;;;;;;10.37;7.17;;;17.80;99.90;;;;;;5014265;28;20446;-66
2023/09/14 05:49:06;;;;;;;10.30;8.77;;;17.80;99.90;;;;;;5014201;28;20810;-66
2023/09/14 05:51:34;;;;;;;12.00;9.17;;;17.90;99.90;;;;;;5012443;28;20520;-65
2023/09/14 05:54:00;;;;;;;7.73;7.00;;;17.90;99.90;;;;;;5015486;28;20478;-66
2023/09/14 05:56:25;;;;;;;8.20;7.40;;;18.00;99.90;;;;;;5009546;28;20429;-61
2023/09/14 05:58:51;;;;;;;8.80;8.00;;;17.90;99.90;;;;;;5011037;28;20213;-65
2023/09/14 06:01:17;;;;;;;8.50;7.80;;;17.90;99.90;;;;;;5014805;28;20193;-65
2023/09/14 06:03:43;;;;;;;8.40;7.60;;;17.90;99.90;;;;;;5012713;28;20682;-66
2023/09/14 06:06:09;;;;;;;7.70;7.10;;;18.00;99.90;;;;;;5015367;28;20173;-64
2023/09/14 06:08:35;;;;;;;8.60;7.90;;;18.00;99.90;;;;;;5015006;28;20760;-67
2023/09/14 06:11:00;;;;;;;7.77;7.07;;;18.10;99.90;;;;;;5015180;28;20187;-66
2023/09/14 06:13:26;;;;;;;8.33;7.70;;;18.10;99.90;;;;;;5007882;28;20238;-60
2023/09/14 06:15:52;;;;;;;6.87;6.33;;;18.20;99.90;;;;;;5006433;28;20200;-64
2023/09/14 06:18:18;;;;;;;7.43;6.70;;;18.20;99.90;;;;;;5023900;28;20603;-64
2023/09/14 06:20:44;;;;;;;10.17;8.57;;;18.30;99.90;;;;;;5010960;28;20428;-64
2023/09/14 06:23:10;;;;;;;9.17;8.30;;;18.30;99.90;;;;;;5002424;28;20191;-67
2023/09/14 06:25:36;;;;;;;9.47;8.20;;;18.30;99.90;;;;;;5014034;28;20421;-76
2023/09/14 06:28:02;;;;;;;8.30;7.47;;;18.50;99.90;;;;;;5014940;28;20414;-75
2023/09/14 06:30:27;;;;;;;7.90;7.20;;;18.80;99.90;;;;;;5012262;28;20183;-66
2023/09/14 06:32:53;;;;;;;10.40;9.50;;;19.10;99.90;;;;;;5014997;28;20211;-76
2023/09/14 06:35:22;;;;;;;11.37;10.47;;;19.30;99.90;;;;;;5014528;28;20175;-78
2023/09/14 06:37:48;;;;;;;11.13;10.07;;;19.60;99.90;;;;;;5013495;28;20626;-64
2023/09/14 06:40:14;;;;;;;13.40;8.40;;;19.70;99.90;;;;;;5014039;28;20426;-64
2023/09/14 06:42:41;;;;;;;10.10;9.20;;;19.70;99.90;;;;;;5000600;28;20266;-64
2023/09/14 06:45:07;;;;;;;13.37;12.20;;;19.60;99.90;;;;;;4995015;28;20400;-64
2023/09/14 06:47:33;;;;;;;12.53;9.83;;;19.40;99.90;;;;;;4994418;28;20415;-64
2023/09/14 06:50:00;;;;;;;12.63;10.30;;;19.30;99.90;;;;;;4995235;28;20416;-64
2023/09/14 06:52:25;;;;;;;7.40;6.77;;;19.10;99.90;;;;;;5003972;28;20418;-65
2023/09/14 06:54:51;;;;;;;7.30;6.33;;;19.00;99.90;;;;;;4990107;28;20419;-66
2023/09/14 06:57:17;;;;;;;8.43;6.93;;;18.90;99.90;;;;;;5014076;28;20186;-64
2023/09/14 06:59:43;;;;;;;6.53;5.90;;;18.80;99.90;;;;;;5011563;28;20186;-64
2023/09/14 07:02:08;;;;;;;7.30;6.70;;;18.50;99.90;;;;;;5013190;28;20186;-64
2023/09/14 07:04:34;;;;;;;7.40;6.33;;;18.40;99.90;;;;;;5012121;28;20190;-65
2023/09/14 07:07:00;;;;;;;7.07;6.30;;;18.40;99.90;;;;;;5013814;28;20186;-65
2023/09/14 07:09:27;;;;;;;6.50;6.00;;;18.30;99.90;;;;;;5013178;28;21028;-65
2023/09/14 07:11:53;;;;;;;6.80;6.10;;;18.10;99.90;;;;;;5012984;28;20450;-65
2023/09/14 07:14:19;;;;;;;13.10;6.63;;;18.10;99.90;;;;;;5013372;28;20547;-65
2023/09/14 07:16:45;;;;;;;6.83;6.07;;;18.10;99.90;;;;;;5013012;28;20179;-64
2023/09/14 07:19:13;;;;;;;6.17;5.57;;;18.10;99.90;;;;;;5013380;28;20262;-64
2023/09/14 07:21:39;;;;;;;6.30;5.90;;;18.10;99.90;;;;;;5011094;28;20172;-64
2023/09/14 07:24:06;;;;;;;7.73;7.00;;;18.20;99.90;;;;;;5013820;28;20433;-65
2023/09/14 07:26:36;;;;;;;6.10;5.60;;;18.20;99.90;;;;;;5013203;28;20179;-64
2023/09/14 07:29:02;;;;;;;6.50;5.70;;;18.10;99.90;;;;;;5013930;28;20460;-65
2023/09/14 07:31:28;;;;;;;7.30;6.60;;;18.10;99.90;;;;;;5013615;28;20787;-65
2023/09/14 07:33:53;;;;;;;6.27;5.67;;;18.10;99.90;;;;;;5012527;28;20453;-65
2023/09/14 07:36:19;;;;;;;10.43;7.30;;;18.20;99.90;;;;;;5013463;28;20179;-65
2023/09/14 07:38:48;;;;;;;7.10;6.40;;;18.20;99.90;;;;;;5013534;28;20268;-64
2023/09/14 07:41:14;;;;;;;6.93;6.27;;;18.10;99.90;;;;;;5013007;28;20582;-66
2023/09/14 07:43:39;;;;;;;7.67;6.20;;;18.10;99.90;;;;;;5011522;28;20893;-65
2023/09/14 07:46:05;;;;;;;6.57;5.97;;;18.10;99.90;;;;;;5012899;28;20215;-65
2023/09/14 07:48:31;;;;;;;7.70;6.60;;;18.20;99.90;;;;;;5006853;28;20190;-66
2023/09/14 07:50:57;;;;;;;8.13;7.33;;;18.20;99.90;;;;;;5011899;28;20183;-66
2023/09/14 07:53:23;;;;;;;8.57;7.03;;;18.30;99.90;;;;;;5012495;28;20461;-65
2023/09/14 07:55:52;;;;;;;12.87;8.07;;;18.30;99.90;;;;;;5007202;28;20547;-64
2023/09/14 07:58:19;;;;;;;8.03;7.23;;;18.30;99.90;;;;;;5013363;28;20174;-66
2023/09/14 08:00:46;;;;;;;7.93;7.10;;;18.40;99.90;;;;;;5012307;28;20759;-65
2023/09/14 08:03:14;;;;;;;7.50;6.90;;;18.40;99.90;;;;;;5013266;28;20405;-65
2023/09/14 08:05:40;;;;;;;10.80;6.23;;;18.50;99.90;;;;;;5012465;28;20964;-65
2023/09/14 08:08:06;;;;;;;8.67;6.83;;;18.60;99.90;;;;;;5012732;28;20430;-66
2023/09/14 08:10:32;;;;;;;10.23;9.17;;;18.60;99.90;;;;;;5011184;28;20437;-65
2023/09/14 08:13:01;;;;;;;6.93;6.23;;;18.60;99.90;;;;;;5012693;28;20207;-66
2023/09/14 08:15:28;;;;;;;7.93;6.80;;;18.60;99.90;;;;;;5012945;28;20218;-66
2023/09/14 08:17:54;;;;;;;9.70;6.73;;;18.70;99.90;;;;;;5012401;28;20405;-65
2023/09/14 08:20:19;;;;;;;8.77;7.50;;;18.70;99.90;;;;;;5012759;28;20414;-66
2023/09/14 08:22:45;;;;;;;11.87;7.23;;;18.80;99.90;;;;;;5002787;28;20544;-66
2023/09/14 08:25:13;;;;;;;32.80;23.63;;;18.90;99.90;;;;;;5012603;28;20174;-65
2023/09/14 08:27:40;;;;;;;12.93;10.03;;;18.90;99.90;;;;;;4995868;28;20419;-65
2023/09/14 08:30:11;;;;;;;10.80;7.27;;;18.90;99.90;;;;;;4992856;28;20938;-66
2023/09/14 08:32:37;;;;;;;7.53;6.80;;;18.90;99.90;;;;;;4992620;28;20411;-64
2023/09/14 08:35:22;;;;;;;7.33;6.60;;;19.00;99.90;;;;;;4991678;28;20469;-65
2023/09/14 08:37:49;;;;;;;9.03;8.27;;;19.10;99.90;;;;;;4992359;28;20415;-64
2023/09/14 08:40:17;;;;;;;8.50;7.60;;;19.10;99.90;;;;;;5001133;28;20499;-65
2023/09/14 08:42:51;;;;;;;8.70;7.80;;;19.10;99.90;;;;;;5009042;28;20829;-66
2023/09/14 08:45:25;;;;;;;6.83;6.17;;;19.20;99.90;;;;;;5000457;28;20429;-68
2023/09/14 08:47:52;;;;;;;6.83;5.93;;;19.20;99.90;;;;;;5012140;28;20512;-70
2023/09/14 08:50:20;;;;;;;6.47;5.87;;;19.20;99.90;;;;;;5012118;28;20425;-65
2023/09/14 08:52:46;;;;;;;6.47;5.97;;;19.40;99.90;;;;;;5011904;28;20504;-66
2023/09/14 08:55:14;;;;;;;8.13;6.57;;;19.50;99.90;;;;;;5012614;28;20424;-65
2023/09/14 08:57:41;;;;;;;6.70;6.20;;;19.60;99.90;;;;;;5009152;28;20422;-66
2023/09/14 09:00:15;;;;;;;6.30;5.53;;;19.70;99.90;;;;;;5012420;28;20964;-66
2023/09/14 09:02:52;;;;;;;6.50;5.90;;;19.80;99.90;;;;;;5012131;28;20495;-66
2023/09/14 09:05:19;;;;;;;6.77;6.30;;;19.90;99.90;;;;;;5012745;28;20801;-66
2023/09/14 09:07:50;;;;;;;6.97;6.27;;;20.00;99.90;;;;;;5011546;28;20855;-66
2023/09/14 09:10:23;;;;;;;213.03;166.03;;;20.10;99.90;;;;;;5012701;28;20406;-66
2023/09/14 09:13:07;;;;;;;11.23;9.63;;;20.20;99.90;;;;;;5011962;28;20442;-66
2023/09/14 09:15:36;;;;;;;10.40;9.40;;;20.30;99.90;;;;;;5012626;28;20449;-67
2023/09/14 09:18:05;;;;;;;20.67;15.00;;;20.40;99.90;;;;;;5011218;28;20417;-72
2023/09/14 09:20:32;;;;;;;23.43;20.90;;;20.80;99.90;;;;;;5013804;28;20406;-72
2023/09/14 09:23:01;;;;;;;17.37;13.70;;;21.10;99.90;;;;;;5015552;28;20650;-72
2023/09/14 09:25:31;;;;;;;14.60;13.20;;;21.50;99.90;;;;;;5016177;28;20402;-73
2023/09/14 09:28:02;;;;;;;8.90;8.20;;;21.80;99.90;;;;;;5013769;28;20448;-72
2023/09/14 09:30:32;;;;;;;11.50;10.40;;;22.10;99.90;;;;;;5015274;28;20897;-72
2023/09/14 09:32:58;;;;;;;6.97;6.40;;;22.30;99.90;;;;;;5015069;28;20706;-72
2023/09/14 09:35:26;;;;;;;4.00;3.70;;;22.60;99.90;;;;;;5016140;28;20501;-72
2023/09/14 09:37:53;;;;;;;4.00;3.70;;;22.60;97.50;;;;;;5015386;28;20414;-72
2023/09/14 09:40:21;;;;;;;8.70;4.57;;;22.30;96.00;;;;;;5015876;28;20480;-73
2023/09/14 09:42:47;;;;;;;5.90;5.40;;;22.20;96.90;;;;;;5014949;28;20430;-72
2023/09/14 09:45:14;;;;;;;6.20;5.70;;;22.30;95.80;;;;;;5014147;28;20421;-72
2023/09/14 09:47:41;;;;;;;5.60;5.20;;;22.30;98.30;;;;;;5013736;28;20765;-70
2023/09/14 09:50:12;;;;;;;6.70;6.00;;;22.40;93.60;;;;;;5016030;28;20756;-73
2023/09/14 09:52:40;;;;;;;4.93;4.53;;;22.60;97.40;;;;;;5015387;28;20402;-73
2023/09/14 09:55:08;;;;;;;5.13;4.63;;;22.80;97.70;;;;;;5015361;28;20552;-71
2023/09/14 09:57:36;;;;;;;5.57;5.27;;;23.00;96.50;;;;;;5014541;28;21819;-71
2023/09/14 10:00:12;;;;;;;3.90;3.60;;;23.10;94.90;;;;;;5014919;28;20406;-71
2023/09/14 10:02:39;;;;;;;4.80;3.97;;;23.20;93.90;;;;;;5013894;28;20769;-71
2023/09/14 10:05:05;;;;;;;5.53;4.90;;;23.10;93.80;;;;;;5015413;28;20402;-71
2023/09/14 10:07:38;;;;;;;4.23;3.80;;;23.20;93.20;;;;;;5014006;28;20421;-71
2023/09/14 10:10:04;;;;;;;3.37;3.10;;;23.20;91.50;;;;;;5014742;28;20209;-71
2023/09/14 10:12:32;;;;;;;3.93;3.63;;;23.10;87.30;;;;;;5015197;28;20777;-72
2023/09/14 10:14:59;;;;;;;4.20;3.80;;;22.90;88.30;;;;;;5014709;28;20493;-71
2023/09/14 10:17:30;;;;;;;4.57;4.27;;;22.30;84.30;;;;;;5015195;28;20453;-71
2023/09/14 10:19:58;;;;;;;2.27;2.17;;;21.90;86.70;;;;;;5014631;28;20395;-71
2023/09/14 10:22:26;;;;;;;5.20;3.17;;;21.40;83.60;;;;;;5013929;28;20406;-72
2023/09/14 10:24:53;;;;;;;4.60;3.00;;;21.10;85.40;;;;;;5014740;28;20432;-71
2023/09/14 10:27:19;;;;;;;4.20;3.93;;;20.20;89.70;;;;;;5012973;28;20434;-71
2023/09/14 10:29:46;;;;;;;4.10;3.70;;;20.20;90.90;;;;;;5013827;28;20432;-71
2023/09/14 10:32:14;;;;;;;4.20;3.90;;;20.00;90.30;;;;;;5010802;28;20456;-71
2023/09/14 10:34:41;;;;;;;8.23;7.43;;;19.60;90.50;;;;;;5014834;28;20461;-71
2023/09/14 10:37:11;;;;;;;4.60;3.80;;;19.80;92.60;;;;;;5014772;28;20451;-71
2023/09/14 10:39:40;;;;;;;3.40;3.20;;;19.80;92.00;;;;;;5014496;28;20468;-71
2023/09/14 10:42:05;;;;;;;4.20;4.00;;;20.00;93.60;;;;;;5013802;28;20422;-71
2023/09/14 10:44:32;;;;;;;5.57;5.27;;;20.40;95.20;;;;;;5001739;28;20438;-71
2023/09/14 10:47:01;;;;;;;3.40;3.10;;;20.70;93.90;;;;;;4993197;28;20194;-71
2023/09/14 10:49:31;;;;;;;6.20;5.90;;;21.00;92.50;;;;;;4993679;28;20416;-71
2023/09/14 10:51:56;;;;;;;5.40;4.97;;;21.10;90.60;;;;;;4994646;28;20450;-71
2023/09/14 10:54:27;;;;;;;3.40;3.00;;;20.90;90.40;;;;;;4994825;28;20482;-71
2023/09/14 10:57:00;;;;;;;373.20;304.43;;;21.10;92.40;;;;;;4998330;28;20254;-71
2023/09/14 10:59:51;;;;;;;101.43;78.97;;;21.40;93.10;;;;;;5014412;28;20417;-71
2023/09/14 11:02:48;;;;;;;45.20;36.03;;;21.60;92.60;;;;;;5014391;28;20409;-71
2023/09/14 11:05:17;;;;;;;8.17;7.40;;;21.80;92.20;;;;;;5013569;28;20402;-70
2023/09/14 11:07:48;;;;;;;3.57;3.37;;;22.00;91.90;;;;;;5011669;28;20418;-83
2023/09/14 11:10:19;;;;;;;4.93;4.70;;;22.00;89.20;;;;;;5014511;28;20409;-71
2023/09/14 11:12:45;;;;;;;4.30;4.00;;;21.90;88.60;;;;;;5013573;28;20401;-69
2023/09/14 11:15:16;;;;;;;5.07;4.60;;;21.90;88.20;;;;;;5012955;28;20406;-71
2023/09/14 11:17:46;;;;;;;9.60;8.80;;;21.80;88.40;;;;;;5014096;28;20195;-72
2023/09/14 11:20:27;;;;;;;4.40;4.10;;;21.90;92.30;;;;;;5014055;28;20458;-72
2023/09/14 11:23:01;;;;;;;3.80;3.50;;;22.00;91.60;;;;;;5013381;28;20797;-71
2023/09/14 11:25:36;;;;;;;4.33;3.93;;;22.10;90.20;;;;;;5012238;28;20425;-72
2023/09/14 11:28:03;;;;;;;3.73;3.53;;;21.90;89.10;;;;;;5013331;28;20455;-71
2023/09/14 11:30:30;;;;;;;3.93;3.73;;;21.90;91.60;;;;;;5013929;28;20414;-72
2023/09/14 11:32:59;;;;;;;7.00;4.13;;;22.00;92.00;;;;;;5013117;28;20452;-72
2023/09/14 11:35:36;;;;;;;4.23;4.00;;;22.20;90.90;;;;;;5013748;28;20745;-72
2023/09/14 11:38:07;;;;;;;4.23;3.83;;;22.20;90.60;;;;;;5012824;28;20410;-72
2023/09/14 11:40:34;;;;;;;4.30;4.00;;;22.20;90.80;;;;;;5012450;28;20862;-72
2023/09/14 11:43:21;;;;;;;4.47;4.07;;;22.20;92.10;;;;;;5009124;28;20437;-72
2023/09/14 11:45:55;;;;;;;3.67;3.47;;;22.40;91.30;;;;;;5001938;28;20429;-70
2023/09/14 11:48:22;;;;;;;4.10;3.83;;;22.50;92.10;;;;;;5013730;28;20386;-72
2023/09/14 11:50:48;;;;;;;5.00;4.77;;;22.40;89.90;;;;;;5012025;28;20414;-71
2023/09/14 11:53:17;;;;;;;4.27;3.90;;;22.30;91.10;;;;;;5013392;28;20536;-72
2023/09/14 11:55:53;;;;;;;3.87;3.57;;;22.10;88.80;;;;;;5013502;28;20753;-72
2023/09/14 11:58:21;;;;;;;4.70;4.30;;;21.70;89.60;;;;;;5009158;28;20437;-71
2023/09/14 12:00:49;;;;;;;3.77;3.57;;;21.70;88.90;;;;;;5012681;28;20830;-66
2023/09/14 12:03:15;;;;;;;7.03;6.53;;;21.80;92.50;;;;;;5013296;28;20814;-72
2023/09/14 12:05:41;;;;;;;3.67;3.40;;;22.00;91.70;;;;;;5011878;28;20410;-73
2023/09/14 12:08:12;;;;;;;5.37;4.97;;;21.90;88.60;;;;;;5011674;28;21059;-73
2023/09/14 12:10:39;;;;;;;4.87;4.57;;;22.00;90.80;;;;;;5012128;28;20409;-73
2023/09/14 12:13:14;;;;;;;4.00;3.70;;;22.00;88.10;;;;;;5012505;28;20519;-72
2023/09/14 12:15:45;;;;;;;4.43;4.13;;;22.10;90.50;;;;;;5012823;28;20455;-73
2023/09/14 12:18:13;;;;;;;3.60;3.30;;;22.20;88.70;;;;;;5012368;28;20489;-73
2023/09/14 12:20:43;;;;;;;4.27;3.87;;;22.10;90.00;;;;;;5028452;28;20816;-73
2023/09/14 12:23:11;;;;;;;7.23;6.63;;;22.20;92.20;;;;;;5010095;28;20446;-73
2023/09/14 12:25:38;;;;;;;4.47;4.17;;;22.20;91.30;;;;;;5012725;28;20890;-73
2023/09/14 12:28:07;;;;;;;6.13;5.80;;;22.30;90.50;;;;;;5012435;28;20402;-73
2023/09/14 12:30:34;;;;;;;4.13;3.87;;;22.30;90.70;;;;;;5011914;28;20429;-73
2023/09/14 12:33:02;;;;;;;4.70;4.30;;;22.30;90.60;;;;;;5010347;28;20544;-73
2023/09/14 12:35:29;;;;;;;5.37;5.00;;;22.20;90.90;;;;;;5012843;28;20825;-73
2023/09/14 12:38:03;;;;;;;4.53;4.20;;;22.10;92.20;;;;;;5011922;28;20813;-72
2023/09/14 12:40:37;;;;;;;5.60;5.30;;;22.20;90.90;;;;;;5012553;28;20547;-73
2023/09/14 12:43:04;;;;;;;6.23;5.83;;;22.20;91.20;;;;;;5012329;28;20407;-72
2023/09/14 12:45:34;;;;;;;4.47;4.17;;;21.80;89.20;;;;;;5012786;28;20441;-72
2023/09/14 12:48:05;;;;;;;5.93;5.00;;;21.50;89.80;;;;;;5011934;28;20882;-72